Time;durP1;ratioP1;P1;durP2;ratioP2;P2;SDS_P1;SDS_P2;PMS_P1;PMS_P2;Temp;Humidity;BMP_temperature;BMP_pressure;BME280_temperature;BME280_humidity;BME280_pressure;Samples;Min_cycle;Max_cycle;Signal;HPM_P1;HPM_P2
2022/05/02 00:02:19;;;;;;;14.65;8.18;;;10.90;99.90;;;;;;4265545;28;10000287;-76
2022/05/02 00:04:44;;;;;;;12.05;7.97;;;10.90;99.90;;;;;;4954216;28;20041;-76
2022/05/02 00:07:10;;;;;;;14.25;7.50;;;10.90;99.90;;;;;;4960615;28;20093;-76
2022/05/02 00:09:36;;;;;;;15.43;7.68;;;10.90;99.90;;;;;;4961335;28;20042;-76
2022/05/02 00:12:02;;;;;;;12.00;7.57;;;10.90;99.90;;;;;;4957036;28;20019;-76
2022/05/02 00:14:27;;;;;;;12.95;8.10;;;10.80;99.90;;;;;;4955441;28;20649;-76
2022/05/02 00:16:53;;;;;;;16.52;8.52;;;10.80;99.90;;;;;;4960187;28;20078;-76
2022/05/02 00:19:18;;;;;;;14.02;8.13;;;10.80;99.90;;;;;;4965032;28;20422;-77
2022/05/02 00:21:44;;;;;;;12.93;8.35;;;10.80;99.90;;;;;;4957735;28;20028;-76
2022/05/02 00:24:10;;;;;;;16.25;8.63;;;10.80;99.90;;;;;;4963524;28;20034;-77
2022/05/02 00:26:35;;;;;;;12.25;8.23;;;10.80;99.90;;;;;;4961727;28;20104;-76
2022/05/02 00:29:01;;;;;;;14.80;8.65;;;10.80;99.90;;;;;;4964872;28;20026;-76
2022/05/02 00:31:27;;;;;;;12.10;7.63;;;10.80;99.90;;;;;;4964091;28;20525;-76
2022/05/02 00:33:52;;;;;;;13.63;8.65;;;10.80;99.90;;;;;;4965179;28;20027;-76
2022/05/02 00:36:18;;;;;;;13.35;8.57;;;10.70;99.90;;;;;;4962218;28;20023;-77
2022/05/02 00:38:44;;;;;;;17.05;9.20;;;10.70;99.90;;;;;;4966283;28;20023;-77
2022/05/02 00:41:11;;;;;;;15.90;8.40;;;10.70;99.90;;;;;;4956966;28;20043;-76
2022/05/02 00:43:36;;;;;;;15.40;8.45;;;10.70;99.90;;;;;;4966173;28;20229;-76
2022/05/02 00:46:02;;;;;;;16.98;8.38;;;10.70;99.90;;;;;;4959522;28;20089;-77
2022/05/02 00:48:29;;;;;;;17.67;9.25;;;10.70;99.90;;;;;;4964639;28;20399;-77
2022/05/02 00:50:55;;;;;;;13.32;8.45;;;10.70;99.90;;;;;;4954092;28;20035;-76
2022/05/02 00:53:23;;;;;;;18.35;8.52;;;10.70;99.90;;;;;;4957540;28;20023;-77
2022/05/02 00:55:48;;;;;;;15.85;9.18;;;10.70;99.90;;;;;;4962327;28;20031;-76
2022/05/02 00:58:15;;;;;;;16.45;8.57;;;10.70;99.90;;;;;;4964009;28;20036;-76
2022/05/02 01:00:41;;;;;;;15.55;8.88;;;10.70;99.90;;;;;;4960610;28;20034;-76
2022/05/02 01:03:10;;;;;;;16.25;7.95;;;10.70;99.90;;;;;;4965996;28;20027;-76
2022/05/02 01:07:08;;;;;;;12.70;8.93;;;10.70;99.90;;;;;;4958997;28;20462;-76
2022/05/02 01:08:29;;;;;;;13.88;8.02;;;10.70;99.90;;;;;;4963116;28;20034;-76
2022/05/02 01:10:56;;;;;;;13.98;8.45;;;10.70;99.90;;;;;;4953821;28;20030;-76
2022/05/02 01:13:51;;;;;;;15.95;8.23;;;10.70;99.90;;;;;;4957999;28;20027;-76
2022/05/02 01:16:22;;;;;;;11.88;8.48;;;10.60;99.90;;;;;;4946616;28;20198;-76
2022/05/02 01:18:50;;;;;;;12.82;8.05;;;10.60;99.90;;;;;;4960217;28;20050;-76
2022/05/02 01:21:20;;;;;;;16.42;8.60;;;10.60;99.90;;;;;;4962566;28;21641;-76
2022/05/02 01:23:51;;;;;;;13.73;8.30;;;10.60;99.90;;;;;;4961210;28;20062;-76
2022/05/02 01:26:17;;;;;;;12.75;8.40;;;10.60;99.90;;;;;;4956487;28;20104;-76
2022/05/02 01:28:48;;;;;;;13.27;8.27;;;10.60;99.90;;;;;;4963221;28;20041;-76
2022/05/02 01:31:15;;;;;;;17.15;8.20;;;10.60;99.90;;;;;;4955519;28;20600;-76
2022/05/02 01:33:41;;;;;;;13.15;8.15;;;10.60;99.90;;;;;;4955206;28;20504;-76
2022/05/02 01:36:07;;;;;;;13.23;8.60;;;10.60;99.90;;;;;;4956515;28;20030;-76
2022/05/02 01:38:33;;;;;;;11.80;8.27;;;10.60;99.90;;;;;;4952980;28;20031;-77
2022/05/02 01:41:02;;;;;;;11.48;8.80;;;10.60;99.90;;;;;;4953079;28;20049;-77
2022/05/02 01:43:27;;;;;;;15.60;8.90;;;10.60;99.90;;;;;;4956542;28;20022;-76
2022/05/02 01:45:54;;;;;;;13.48;8.25;;;10.60;99.90;;;;;;4949645;28;20035;-76
2022/05/02 01:48:19;;;;;;;14.93;8.73;;;10.60;99.90;;;;;;4956650;28;20379;-76
2022/05/02 01:50:45;;;;;;;13.88;9.02;;;10.60;99.90;;;;;;4955059;28;20061;-76
2022/05/02 01:53:11;;;;;;;17.08;8.40;;;10.60;99.90;;;;;;4962862;28;20034;-76
2022/05/02 01:55:36;;;;;;;17.20;8.77;;;10.60;99.90;;;;;;4962986;28;20030;-76
2022/05/02 01:58:02;;;;;;;15.80;8.80;;;10.60;99.90;;;;;;4963378;28;20427;-76
2022/05/02 02:00:28;;;;;;;16.77;8.48;;;10.60;99.90;;;;;;4954258;28;20019;-77
2022/05/02 02:02:53;;;;;;;12.98;8.40;;;10.60;99.90;;;;;;4948778;28;20035;-76
2022/05/02 02:08:03;;;;;;;13.80;9.30;;;10.60;99.90;;;;;;4962216;28;20089;-77
2022/05/02 02:10:29;;;;;;;14.35;9.38;;;10.60;99.90;;;;;;4959655;28;20026;-76
2022/05/02 02:12:54;;;;;;;16.13;9.65;;;10.60;99.90;;;;;;4965100;28;20022;-76
2022/05/02 02:15:20;;;;;;;14.68;9.35;;;10.60;99.90;;;;;;4958646;28;20019;-76
2022/05/02 02:17:46;;;;;;;16.38;10.00;;;10.60;99.90;;;;;;4957762;28;20051;-76
2022/05/02 02:20:12;;;;;;;14.68;10.05;;;10.60;99.90;;;;;;4961807;28;20046;-76
2022/05/02 02:22:38;;;;;;;15.90;9.25;;;10.60;99.90;;;;;;4956612;28;20019;-76
2022/05/02 02:25:05;;;;;;;15.18;9.18;;;10.60;99.90;;;;;;4954845;28;20043;-76
2022/05/02 02:27:32;;;;;;;13.05;9.55;;;10.60;99.90;;;;;;4954997;28;20106;-76
2022/05/02 02:29:58;;;;;;;14.70;8.93;;;10.60;99.90;;;;;;4954296;28;20039;-76
2022/05/02 02:32:24;;;;;;;14.15;8.80;;;10.60;99.90;;;;;;4953883;28;20277;-76
2022/05/02 02:34:51;;;;;;;14.95;9.95;;;10.60;99.90;;;;;;4965612;28;20198;-76
2022/05/02 02:37:17;;;;;;;14.73;9.82;;;10.60;99.90;;;;;;4963044;28;20437;-76
2022/05/02 02:39:44;;;;;;;16.95;9.57;;;10.60;99.90;;;;;;4958456;28;20037;-76
2022/05/02 02:42:10;;;;;;;17.63;10.40;;;10.60;99.90;;;;;;4956978;28;20035;-76
2022/05/02 02:44:35;;;;;;;15.65;10.13;;;10.60;99.90;;;;;;4966199;28;20038;-76
2022/05/02 02:47:01;;;;;;;18.05;10.80;;;10.60;99.90;;;;;;4971984;28;20506;-75
2022/05/02 02:49:27;;;;;;;12.93;9.50;;;10.60;99.90;;;;;;4959516;28;20531;-76
2022/05/02 02:51:53;;;;;;;17.83;11.35;;;10.60;99.90;;;;;;4950138;28;20030;-75
2022/05/02 02:54:18;;;;;;;16.98;11.55;;;10.60;99.90;;;;;;4962226;28;20019;-76
2022/05/02 02:56:44;;;;;;;16.73;10.45;;;10.60;99.90;;;;;;4956665;28;20042;-76
2022/05/02 02:59:10;;;;;;;19.45;10.65;;;10.60;99.90;;;;;;4956135;28;20023;-76
2022/05/02 03:01:36;;;;;;;16.83;10.48;;;10.50;99.90;;;;;;4957282;28;20395;-76
2022/05/02 03:06:01;;;;;;;15.68;10.10;;;10.50;99.90;;;;;;4971573;28;20023;-76
2022/05/02 03:06:48;;;;;;;14.68;10.48;;;10.50;99.90;;;;;;4959483;28;20479;-76
2022/05/02 03:09:13;;;;;;;15.27;10.23;;;10.50;99.90;;;;;;4962072;28;20042;-76
2022/05/02 03:11:39;;;;;;;17.00;10.45;;;10.50;99.90;;;;;;4955911;28;20027;-76
2022/05/02 03:14:04;;;;;;;17.23;10.88;;;10.50;99.90;;;;;;4966026;28;20031;-76
2022/05/02 03:16:30;;;;;;;16.33;10.93;;;10.50;99.90;;;;;;4969748;28;20442;-76
2022/05/02 03:18:55;;;;;;;16.50;10.52;;;10.50;99.90;;;;;;4961129;28;20102;-76
2022/05/02 03:21:21;;;;;;;18.77;10.63;;;10.50;99.90;;;;;;4952687;28;20265;-76
2022/05/02 03:23:47;;;;;;;15.43;10.57;;;10.50;99.90;;;;;;4960375;28;20422;-76
2022/05/02 03:26:12;;;;;;;17.38;12.00;;;10.50;99.90;;;;;;4960419;28;20157;-76
2022/05/02 03:28:38;;;;;;;14.90;10.38;;;10.50;99.90;;;;;;4960612;28;20031;-76
2022/05/02 03:31:04;;;;;;;16.95;10.80;;;10.40;99.90;;;;;;4957621;28;20372;-76
2022/05/02 03:33:29;;;;;;;16.75;10.20;;;10.40;99.90;;;;;;4959502;28;20100;-76
2022/05/02 03:35:55;;;;;;;14.63;10.15;;;10.40;99.90;;;;;;4961805;28;20027;-76
2022/05/02 03:38:21;;;;;;;18.83;10.50;;;10.40;99.90;;;;;;4957850;28;20027;-76
2022/05/02 03:40:46;;;;;;;16.50;10.70;;;10.40;99.90;;;;;;4956368;28;20692;-76
2022/05/02 03:43:13;;;;;;;15.45;11.23;;;10.40;99.90;;;;;;4957047;28;20058;-76
2022/05/02 03:45:38;;;;;;;15.32;10.70;;;10.40;99.90;;;;;;4966562;28;20031;-75
2022/05/02 03:48:04;;;;;;;15.23;11.45;;;10.40;99.90;;;;;;4959718;28;20438;-75
2022/05/02 03:50:30;;;;;;;22.10;11.35;;;10.30;99.90;;;;;;4955339;28;20066;-75
2022/05/02 03:52:56;;;;;;;14.45;10.98;;;10.30;99.90;;;;;;4960559;28;20574;-76
2022/05/02 03:55:22;;;;;;;17.17;11.60;;;10.30;99.90;;;;;;4962038;28;20019;-76
2022/05/02 03:57:47;;;;;;;17.90;11.32;;;10.30;99.90;;;;;;4964040;28;20038;-76
2022/05/02 04:00:14;;;;;;;17.05;11.07;;;10.30;99.90;;;;;;4962925;28;20104;-76
2022/05/02 04:02:40;;;;;;;16.75;10.43;;;10.30;99.90;;;;;;4958281;28;20360;-75
2022/05/02 04:05:07;;;;;;;17.73;11.60;;;10.30;99.90;;;;;;4963510;28;20043;-76
2022/05/02 04:07:33;;;;;;;15.23;10.15;;;10.30;99.90;;;;;;4966246;28;20517;-76
2022/05/02 04:09:59;;;;;;;16.60;10.82;;;10.30;99.90;;;;;;4963718;28;20646;-76
2022/05/02 04:12:25;;;;;;;16.05;11.07;;;10.30;99.90;;;;;;4957396;28;20117;-75
2022/05/02 04:14:50;;;;;;;17.67;11.43;;;10.30;99.90;;;;;;4965384;28;20069;-76
2022/05/02 04:17:16;;;;;;;16.52;11.40;;;10.30;99.90;;;;;;4959121;28;20505;-76
2022/05/02 04:19:42;;;;;;;16.35;11.13;;;10.40;99.90;;;;;;4958688;28;20063;-76
2022/05/02 04:22:07;;;;;;;16.70;11.60;;;10.40;99.90;;;;;;4963910;28;20043;-75
2022/05/02 04:24:33;;;;;;;19.38;11.85;;;10.30;99.90;;;;;;4946242;28;20039;-76
2022/05/02 04:26:58;;;;;;;16.60;11.20;;;10.40;99.90;;;;;;4964162;28;20054;-77
2022/05/02 04:29:25;;;;;;;15.77;11.52;;;10.30;99.90;;;;;;4960806;28;20027;-76
2022/05/02 04:31:50;;;;;;;19.50;12.05;;;10.40;99.90;;;;;;4963426;28;20035;-77
2022/05/02 04:34:16;;;;;;;19.25;11.80;;;10.40;99.90;;;;;;4965069;28;20025;-77
2022/05/02 04:36:42;;;;;;;16.42;11.90;;;10.40;99.90;;;;;;4968288;28;20019;-76
2022/05/02 04:39:07;;;;;;;19.38;11.95;;;10.40;99.90;;;;;;4966480;28;20054;-76
2022/05/02 04:41:33;;;;;;;16.50;11.60;;;10.40;99.90;;;;;;4957941;28;20480;-76
2022/05/02 04:43:58;;;;;;;16.73;12.15;;;10.40;99.90;;;;;;4955248;28;20049;-76
2022/05/02 04:46:24;;;;;;;21.25;12.70;;;10.40;99.90;;;;;;4965254;28;20118;-77
2022/05/02 04:48:50;;;;;;;20.42;12.10;;;10.40;99.90;;;;;;4954569;28;20094;-76
2022/05/02 04:51:15;;;;;;;18.63;11.93;;;10.40;99.90;;;;;;4963262;28;20039;-76
2022/05/02 04:53:41;;;;;;;15.50;11.40;;;10.40;99.90;;;;;;4967800;28;20027;-76
2022/05/02 04:56:06;;;;;;;18.33;12.15;;;10.40;99.90;;;;;;4960645;28;20031;-76
2022/05/02 04:58:32;;;;;;;14.65;11.43;;;10.40;99.90;;;;;;4965044;28;20503;-76
2022/05/02 05:00:58;;;;;;;18.27;11.23;;;10.40;99.90;;;;;;4957761;28;20043;-76
2022/05/02 05:03:23;;;;;;;17.42;11.43;;;10.50;99.90;;;;;;4959790;28;20427;-78
2022/05/02 05:05:49;;;;;;;20.85;11.63;;;10.50;99.90;;;;;;4960173;28;20042;-78
2022/05/02 05:08:15;;;;;;;18.63;12.10;;;10.50;99.90;;;;;;4959318;28;20046;-77
2022/05/02 05:11:17;;;;;;;17.98;11.93;;;10.60;99.90;;;;;;4960070;28;20485;-77
2022/05/02 05:17:16;;;;;;;19.23;11.00;;;10.60;99.90;;;;;;4965464;28;20688;-77
2022/05/02 05:20:00;;;;;;;15.32;10.77;;;10.70;99.90;;;;;;4958979;28;20227;-77
2022/05/02 05:22:55;;;;;;;18.27;11.23;;;10.70;99.90;;;;;;4963202;28;20030;-77
2022/05/02 05:25:39;;;;;;;22.98;10.95;;;10.80;99.90;;;;;;4958387;28;20101;-77
2022/05/02 05:28:23;;;;;;;16.08;11.20;;;10.80;99.90;;;;;;4950666;28;20252;-77
2022/05/02 05:31:00;;;;;;;15.88;10.75;;;10.80;99.90;;;;;;4952508;28;20031;-76
2022/05/02 05:33:48;;;;;;;18.50;11.32;;;10.90;99.90;;;;;;4963444;28;20270;-77
2022/05/02 05:36:24;;;;;;;19.63;11.07;;;10.90;99.90;;;;;;4960943;28;20035;-78
2022/05/02 05:38:57;;;;;;;19.10;11.57;;;10.90;99.90;;;;;;4962981;28;20019;-76
2022/05/02 05:41:59;;;;;;;16.10;11.57;;;10.90;99.90;;;;;;4961963;28;20034;-77
2022/05/02 05:44:49;;;;;;;19.52;11.85;;;11.00;99.90;;;;;;4964490;28;20043;-76
2022/05/02 05:47:31;;;;;;;19.75;12.30;;;11.10;99.90;;;;;;4905627;28;20062;-77
2022/05/02 05:50:18;;;;;;;16.90;11.77;;;11.20;99.90;;;;;;4960777;28;20139;-77
2022/05/02 05:52:50;;;;;;;21.05;11.80;;;11.30;99.90;;;;;;4967163;28;20357;-76
2022/05/02 05:55:22;;;;;;;16.63;11.98;;;11.30;99.90;;;;;;4965553;28;20034;-77
2022/05/02 05:58:12;;;;;;;18.17;11.70;;;11.40;99.90;;;;;;4957559;28;20034;-77
2022/05/02 06:00:44;;;;;;;23.42;12.68;;;11.40;99.90;;;;;;4957252;28;20799;-77
2022/05/02 06:03:23;;;;;;;18.45;12.45;;;11.50;99.90;;;;;;4960132;28;20034;-76
2022/05/02 06:05:49;;;;;;;20.00;12.48;;;11.50;99.90;;;;;;4966000;28;20034;-77
2022/05/02 06:08:25;;;;;;;17.17;12.90;;;11.60;99.90;;;;;;4967995;28;20035;-76
2022/05/02 06:10:51;;;;;;;18.33;12.80;;;11.60;99.90;;;;;;4960510;28;20065;-77
2022/05/02 06:13:18;;;;;;;18.17;12.85;;;11.70;99.90;;;;;;4952152;28;20264;-77
2022/05/02 06:18:38;;;;;;;18.35;12.35;;;11.80;99.90;;;;;;4964924;28;20126;-77
2022/05/02 06:21:06;;;;;;;18.08;11.73;;;11.80;99.90;;;;;;4962290;28;20052;-77
2022/05/02 06:23:39;;;;;;;17.98;11.50;;;11.80;99.90;;;;;;4961642;28;20411;-76
2022/05/02 06:26:06;;;;;;;20.95;11.82;;;11.90;99.90;;;;;;4958799;28;20019;-77
2022/05/02 06:28:40;;;;;;;13.65;10.55;;;11.90;99.90;;;;;;4962611;28;20417;-78
2022/05/02 06:31:12;;;;;;;15.38;10.73;;;12.00;99.90;;;;;;4957397;28;20102;-78
2022/05/02 06:33:40;;;;;;;15.83;10.93;;;12.10;99.90;;;;;;4965681;28;20029;-78
2022/05/02 06:36:27;;;;;;;16.33;10.13;;;12.20;99.90;;;;;;4957647;28;20698;-77
2022/05/02 06:39:29;;;;;;;17.48;9.98;;;12.30;99.90;;;;;;4962538;28;20023;-77
2022/05/02 06:42:21;;;;;;;13.82;10.18;;;12.50;99.90;;;;;;4945462;28;20590;-77
2022/05/02 06:44:49;;;;;;;14.77;10.90;;;12.60;99.90;;;;;;4968942;28;20034;-77
2022/05/02 06:47:18;;;;;;;14.40;9.50;;;;;;;;;;4962576;28;20041;-77
2022/05/02 06:49:48;;;;;;;14.35;9.60;;;;;;;;;;4954687;28;20057;-78
2022/05/02 06:52:16;;;;;;;15.68;9.52;;;;;;;;;;4952781;28;20502;-75
2022/05/02 06:54:45;;;;;;;12.80;9.15;;;;;;;;;;4958336;28;20053;-75
2022/05/02 06:57:23;;;;;;;13.25;10.00;;;;;;;;;;4965759;28;20292;-75
2022/05/02 06:59:55;;;;;;;13.55;9.73;;;;;;;;;;4955091;28;20655;-75
2022/05/02 07:02:27;;;;;;;17.23;10.50;;;;;;;;;;4953850;28;20599;-75
2022/05/02 07:04:54;;;;;;;14.43;9.75;;;;;;;;;;4967210;28;20030;-75
2022/05/02 07:07:20;;;;;;;12.32;10.02;;;;;;;;;;4974230;28;20027;-75
2022/05/02 07:09:47;;;;;;;16.88;9.15;;;;;;;;;;4964693;28;20422;-76
2022/05/02 07:12:13;;;;;;;12.60;8.98;;;;;;;;;;4962935;28;20027;-75
2022/05/02 07:14:39;;;;;;;12.90;10.13;;;;;;;;;;4964827;28;20026;-75
2022/05/02 07:17:07;;;;;;;13.32;9.73;;;;;;;;;;4960071;28;20062;-75
2022/05/02 07:19:48;;;;;;;15.95;9.50;;;;;;;;;;4960420;28;20039;-75
2022/05/02 07:22:18;;;;;;;14.57;9.90;;;;;;;;;;4952942;28;20031;-76
2022/05/02 07:24:57;;;;;;;19.10;11.20;;;;;;;;;;4957554;28;20074;-77
2022/05/02 07:27:40;;;;;;;15.88;10.60;;;;;;;;;;4946676;28;20035;-77
2022/05/02 07:30:06;;;;;;;16.92;10.65;;;;;;;;;;4960775;28;20458;-77
2022/05/02 07:32:32;;;;;;;13.02;9.55;;;;;;;;;;4964343;28;20690;-79
2022/05/02 07:34:59;;;;;;;11.70;8.63;;;13.10;99.90;;;;;;4968867;28;20089;-77
2022/05/02 07:37:25;;;;;;;15.80;10.60;;;13.50;99.90;;;;;;4967013;28;20023;-81
2022/05/02 07:39:52;;;;;;;16.00;9.82;;;13.90;99.90;;;;;;4965203;28;20821;-77
2022/05/02 07:42:19;;;;;;;14.50;9.80;;;14.30;99.90;;;;;;4960069;28;20049;-81
2022/05/02 07:44:47;;;;;;;13.82;9.13;;;14.60;99.90;;;;;;4967139;28;20042;-81
2022/05/02 07:47:15;;;;;;;11.07;8.68;;;14.70;99.90;;;;;;4972118;28;20037;-80
2022/05/02 07:49:46;;;;;;;12.93;9.60;;;14.90;99.90;;;;;;4967912;28;20038;-80
2022/05/02 07:52:16;;;;;;;12.13;9.27;;;14.90;99.90;;;;;;4954475;28;20031;-78
2022/05/02 07:54:46;;;;;;;13.35;9.13;;;15.00;99.90;;;;;;4969908;28;20041;-80
2022/05/02 07:57:14;;;;;;;15.68;9.60;;;15.00;99.90;;;;;;4969973;28;20026;-77
2022/05/02 07:59:40;;;;;;;14.48;9.65;;;15.10;99.90;;;;;;4952462;28;20019;-80
2022/05/02 08:02:07;;;;;;;12.82;9.32;;;15.20;99.90;;;;;;4965856;28;20041;-83
2022/05/02 08:04:37;;;;;;;14.13;9.48;;;15.40;99.90;;;;;;4971382;28;20074;-77
2022/05/02 08:07:11;;;;;;;13.27;9.23;;;15.40;99.90;;;;;;4969944;28;20053;-82
2022/05/02 08:09:57;;;;;;;15.35;9.90;;;15.50;99.90;;;;;;4965764;28;20034;-81
2022/05/02 08:12:46;;;;;;;13.90;9.48;;;15.60;99.90;;;;;;4958830;28;20457;-77
2022/05/02 08:15:31;;;;;;;15.15;9.43;;;15.60;99.90;;;;;;4972434;28;20390;-78
2022/05/02 08:18:32;;;;;;;15.02;8.68;;;15.60;99.90;;;;;;4974499;28;20015;-77
2022/05/02 08:21:06;;;;;;;13.23;8.38;;;15.60;99.90;;;;;;4965157;28;20023;-80
2022/05/02 08:27:21;;;;;;;13.70;8.85;;;15.80;99.90;;;;;;4959211;28;20058;-78
2022/05/02 08:30:14;;;;;;;10.02;7.38;;;15.90;99.90;;;;;;4966652;28;20034;-79
2022/05/02 08:33:02;;;;;;;12.95;7.72;;;16.10;99.90;;;;;;4970207;28;20123;-78
2022/05/02 08:35:45;;;;;;;8.55;7.28;;;16.20;99.90;;;;;;4969494;28;20038;-82
2022/05/02 08:38:32;;;;;;;15.05;7.70;;;16.50;99.90;;;;;;4965367;28;20031;-79
2022/05/02 08:41:30;;;;;;;11.48;7.90;;;16.50;99.90;;;;;;4966676;28;20027;-82
2022/05/02 08:44:20;;;;;;;11.68;7.70;;;16.60;99.90;;;;;;4960242;28;20027;-82
2022/05/02 08:47:33;;;;;;;11.23;7.22;;;16.70;99.90;;;;;;4967320;28;20387;-81
2022/05/02 08:50:04;;;;;;;17.55;7.75;;;16.80;99.90;;;;;;4966649;28;20424;-81
2022/05/02 08:52:55;;;;;;;12.57;7.13;;;17.00;99.90;;;;;;4961905;28;20034;-79
2022/05/02 08:55:39;;;;;;;10.55;7.30;;;17.00;99.90;;;;;;4954566;28;20028;-81
2022/05/02 08:58:08;;;;;;;11.02;7.60;;;16.80;99.90;;;;;;4968679;28;20276;-82
2022/05/02 09:01:00;;;;;;;11.75;7.68;;;16.70;99.90;;;;;;4961477;28;20026;-82
2022/05/02 09:03:50;;;;;;;8.93;7.15;;;16.60;99.90;;;;;;4951705;28;20029;-80
2022/05/02 09:07:03;;;;;;;13.48;7.20;;;16.80;99.90;;;;;;4953714;28;20046;-78
2022/05/02 09:09:46;;;;;;;10.55;7.15;;;16.90;99.90;;;;;;4928769;28;20058;-81
2022/05/02 09:12:30;;;;;;;13.40;7.35;;;16.70;99.90;;;;;;4955338;28;20054;-81
2022/05/02 09:15:11;;;;;;;9.95;7.03;;;16.80;99.90;;;;;;4966971;28;20061;-80
2022/05/02 09:18:01;;;;;;;11.13;7.55;;;16.80;99.90;;;;;;4962004;28;20038;-80
2022/05/02 09:20:56;;;;;;;10.50;7.28;;;17.10;99.90;;;;;;4958540;28;20272;-82
2022/05/02 09:23:40;;;;;;;11.68;7.10;;;17.20;99.90;;;;;;4966648;28;20042;-79
2022/05/02 09:26:06;;;;;;;12.38;7.50;;;17.10;99.90;;;;;;4964425;28;20034;-76
2022/05/02 09:28:56;;;;;;;9.68;7.38;;;17.10;99.90;;;;;;4965856;28;20085;-78
2022/05/02 09:31:51;;;;;;;10.50;7.22;;;17.10;99.90;;;;;;4957334;28;20034;-78
2022/05/02 09:34:38;;;;;;;8.93;6.88;;;17.00;99.90;;;;;;4964059;28;20027;-80
2022/05/02 09:37:06;;;;;;;12.55;6.80;;;16.90;99.90;;;;;;4956039;28;20046;-82
2022/05/02 09:39:47;;;;;;;7.93;6.15;;;17.40;99.90;;;;;;4966022;28;20019;-82
2022/05/02 09:42:27;;;;;;;10.50;7.22;;;17.40;99.90;;;;;;4960872;28;20051;-82
2022/05/02 09:51:21;;;;;;;9.80;7.18;;;17.40;99.90;;;;;;4963272;28;20520;-82
2022/05/02 09:54:14;;;;;;;11.25;6.63;;;17.60;99.90;;;;;;4964193;28;20174;-82
2022/05/02 09:56:45;;;;;;;12.60;6.20;;;17.80;99.10;;;;;;4955639;28;20228;-81
2022/05/02 09:59:25;;;;;;;10.25;6.50;;;18.00;99.20;;;;;;4953278;28;20067;-82
2022/05/02 10:02:05;;;;;;;10.00;7.00;;;18.00;99.90;;;;;;4960954;28;20113;-81
2022/05/02 10:05:05;;;;;;;9.02;6.70;;;17.90;99.70;;;;;;4959201;28;20057;-81
2022/05/02 10:07:40;;;;;;;10.60;6.45;;;17.90;99.90;;;;;;4958996;28;20137;-82
2022/05/02 10:10:25;;;;;;;11.45;6.53;;;18.00;99.60;;;;;;4958304;28;20081;-81
2022/05/02 10:13:06;;;;;;;9.07;6.80;;;18.10;97.10;;;;;;4957978;28;20028;-81
2022/05/02 10:16:16;;;;;;;19.92;6.65;;;18.30;96.20;;;;;;4956611;28;20150;-81
2022/05/02 10:18:51;;;;;;;10.20;7.00;;;18.40;99.10;;;;;;4957595;28;20153;-82
2022/05/02 10:21:23;;;;;;;9.95;6.68;;;18.40;96.70;;;;;;4959139;28;20538;-82
2022/05/02 10:23:57;;;;;;;11.15;6.20;;;18.50;95.70;;;;;;4964794;28;20070;-83
2022/05/02 10:26:29;;;;;;;7.53;5.97;;;18.80;97.30;;;;;;4954854;28;20062;-82
2022/05/02 10:29:32;;;;;;;7.15;5.32;;;18.80;95.10;;;;;;4959775;28;20728;-82
2022/05/02 10:32:08;;;;;;;8.73;5.40;;;18.90;94.50;;;;;;4909123;28;20044;-81
2022/05/02 10:34:37;;;;;;;6.68;5.03;;;19.20;93.50;;;;;;4959663;28;20038;-80
2022/05/02 10:37:07;;;;;;;6.35;5.47;;;19.40;93.20;;;;;;4963911;28;20666;-81
2022/05/02 10:39:44;;;;;;;8.50;5.50;;;19.50;93.90;;;;;;4963552;28;20034;-82
2022/05/02 10:42:13;;;;;;;10.07;5.63;;;19.40;93.40;;;;;;4966291;28;20033;-81
2022/05/02 10:44:47;;;;;;;8.00;5.50;;;19.30;94.70;;;;;;4962887;28;20031;-82
2022/05/02 10:47:17;;;;;;;8.20;5.63;;;19.20;92.70;;;;;;4950517;28;20054;-81
2022/05/02 10:50:04;;;;;;;7.47;5.30;;;19.30;90.80;;;;;;4959292;28;20050;-82
2022/05/02 10:52:53;;;;;;;7.43;5.00;;;19.40;91.00;;;;;;4965403;28;20027;-82
2022/05/02 10:55:33;;;;;;;7.38;5.30;;;19.60;90.90;;;;;;4951508;28;20038;-82
2022/05/02 10:58:04;;;;;;;9.60;5.25;;;19.70;90.60;;;;;;4963419;28;20035;-81
2022/05/02 11:00:31;;;;;;;8.57;5.30;;;20.10;94.40;;;;;;4961863;28;20039;-81
2022/05/02 11:03:39;;;;;;;8.38;6.03;;;19.90;90.50;;;;;;4959186;28;20035;-81
2022/05/02 11:06:34;;;;;;;8.07;5.72;;;19.80;91.10;;;;;;4961323;28;20386;-81
2022/05/02 11:09:03;;;;;;;10.35;6.30;;;19.70;92.00;;;;;;4963024;28;20043;-81
2022/05/02 11:11:39;;;;;;;7.35;5.93;;;19.50;90.90;;;;;;4958339;28;20035;-81
2022/05/02 11:14:20;;;;;;;9.85;6.43;;;19.30;92.50;;;;;;4965176;28;20042;-81
2022/05/02 11:17:17;;;;;;;7.10;6.28;;;19.10;91.20;;;;;;4966189;28;20077;-81
2022/05/02 11:23:32;;;;;;;8.48;6.10;;;19.10;86.90;;;;;;4964050;28;20680;-81
2022/05/02 11:26:09;;;;;;;11.52;6.35;;;19.20;90.20;;;;;;4896226;29;20024;-80
2022/05/02 11:28:41;;;;;;;10.15;6.50;;;19.20;90.90;;;;;;4947781;28;20040;-80
2022/05/02 11:31:21;;;;;;;8.13;6.07;;;18.90;91.10;;;;;;4955598;28;20136;-79
2022/05/02 11:34:02;;;;;;;7.47;6.15;;;18.70;93.00;;;;;;4951521;28;20015;-80
2022/05/02 11:36:32;;;;;;;10.55;6.22;;;18.80;92.00;;;;;;4962549;28;20054;-80
2022/05/02 11:39:03;;;;;;;8.65;6.00;;;19.00;92.30;;;;;;4957642;28;20030;-78
2022/05/02 11:41:29;;;;;;;8.82;5.85;;;19.10;92.20;;;;;;4956505;28;20447;-80
2022/05/02 11:44:16;;;;;;;10.75;6.00;;;19.50;90.30;;;;;;4960373;28;20082;-79
2022/05/02 11:47:07;;;;;;;6.40;5.53;;;19.80;96.50;;;;;;4963839;28;20506;-78
2022/05/02 11:50:05;;;;;;;13.70;6.40;;;19.80;92.10;;;;;;4954421;28;20507;-80
2022/05/02 11:52:35;;;;;;;8.43;5.25;;;20.00;83.60;;;;;;4959092;28;20027;-79
2022/05/02 11:55:02;;;;;;;7.90;5.90;;;;;;;;;;4959496;28;20800;-79
2022/05/02 11:57:45;;;;;;;11.82;6.95;;;;;;;;;;4955583;28;20059;-80
2022/05/02 12:00:15;;;;;;;8.82;6.57;;;;;;;;;;4954534;28;20636;-80
2022/05/02 12:02:51;;;;;;;7.80;5.70;;;20.00;99.90;;;;;;4955889;28;20027;-80
2022/05/02 12:05:41;;;;;;;9.60;6.18;;;20.20;99.90;;;;;;4959085;28;20118;-80
2022/05/02 12:08:21;;;;;;;9.00;5.60;;;20.40;99.90;;;;;;4957452;28;20034;-80
2022/05/02 12:10:47;;;;;;;6.93;5.07;;;20.50;99.80;;;;;;4954503;28;20039;-80
2022/05/02 12:13:18;;;;;;;9.18;6.32;;;20.70;98.10;;;;;;4961378;28;20093;-80
2022/05/02 12:15:54;;;;;;;9.02;5.75;;;20.90;99.90;;;;;;4958592;28;20023;-80
2022/05/02 12:18:20;;;;;;;7.25;5.10;;;20.80;77.50;;;;;;4961583;28;20035;-81
2022/05/02 12:20:53;;;;;;;7.32;4.90;;;20.90;76.50;;;;;;4965119;28;20031;-81
2022/05/02 12:23:22;;;;;;;8.00;5.80;;;21.10;74.30;;;;;;4966693;28;20584;-81
2022/05/02 12:25:50;;;;;;;10.35;5.95;;;21.40;80.30;;;;;;4962131;28;20471;-80
2022/05/02 12:28:19;;;;;;;8.35;5.45;;;21.30;79.70;;;;;;4964783;28;20069;-80
2022/05/02 12:30:52;;;;;;;6.80;5.80;;;21.30;79.70;;;;;;4960056;28;20034;-80
2022/05/02 12:33:19;;;;;;;;;;;21.00;76.60;;;;;;4966157;28;20034;-81
2022/05/02 12:35:45;;;;;;;10.13;6.00;;;21.00;75.00;;;;;;4966445;28;19906;-82
2022/05/02 12:38:16;;;;;;;7.40;5.38;;;21.20;71.50;;;;;;4968485;28;20571;-80
2022/05/02 12:40:49;;;;;;;8.18;5.00;;;21.50;74.10;;;;;;4957608;28;20016;-81
2022/05/02 12:43:21;;;;;;;;;;;21.60;72.80;;;;;;4964052;28;20062;-80
2022/05/02 12:45:47;;;;;;;9.38;5.78;;;21.50;69.80;;;;;;4967289;28;20355;-80
2022/05/02 12:48:28;;;;;;;7.03;4.57;;;21.60;72.50;;;;;;4956357;28;20121;-80
2022/05/02 12:50:56;;;;;;;7.63;5.03;;;21.90;71.00;;;;;;4955854;28;20577;-81
2022/05/02 12:56:09;;;;;;;7.35;4.40;;;22.00;67.80;;;;;;4967419;28;20037;-81
2022/05/02 13:01:22;;;;;;;7.53;4.53;;;22.30;65.10;;;;;;4960094;28;20049;-81
2022/05/02 13:04:00;;;;;;;5.25;3.95;;;22.50;64.20;;;;;;4966105;28;20046;-81
2022/05/02 13:06:26;;;;;;;5.03;4.32;;;22.70;63.20;;;;;;4956641;28;20035;-81
2022/05/02 13:09:19;;;;;;;7.80;4.35;;;22.80;62.60;;;;;;4957104;28;20057;-81
2022/05/02 13:11:47;;;;;;;7.15;4.57;;;22.80;60.80;;;;;;4957150;28;20454;-81
2022/05/02 13:14:21;;;;;;;9.93;4.90;;;22.80;64.20;;;;;;4958205;28;20031;-80
2022/05/02 13:16:47;;;;;;;5.60;4.25;;;22.60;64.60;;;;;;4960992;28;20030;-80
2022/05/02 13:19:13;;;;;;;9.02;4.53;;;22.30;60.70;;;;;;4959722;28;20034;-80
2022/05/02 13:21:39;;;;;;;10.23;4.72;;;;;;;;;;4958296;28;20084;-79
2022/05/02 13:24:14;;;;;;;5.32;4.15;;;22.30;61.20;;;;;;4957106;28;20031;-80
2022/05/02 13:26:59;;;;;;;9.00;4.55;;;22.50;61.80;;;;;;4963277;28;20087;-79
2022/05/02 13:29:50;;;;;;;6.68;4.43;;;22.60;59.80;;;;;;4960254;28;20541;-80
2022/05/02 13:32:17;;;;;;;6.05;4.20;;;22.80;56.90;;;;;;4953114;28;20078;-80
2022/05/02 13:34:54;;;;;;;4.13;3.67;;;23.00;56.90;;;;;;4955567;28;20023;-80
2022/05/02 13:37:29;;;;;;;6.38;4.28;;;23.20;57.00;;;;;;4967276;28;20031;-80
2022/05/02 13:40:09;;;;;;;7.25;4.75;;;23.50;58.50;;;;;;4957447;28;20042;-79
2022/05/02 13:42:36;;;;;;;5.88;4.20;;;23.50;59.00;;;;;;4956162;28;20042;-76